Time;durP1;ratioP1;P1;durP2;ratioP2;P2;SDS_P1;SDS_P2;PMS_P1;PMS_P2;Temp;Humidity;BMP_temperature;BMP_pressure;BME280_temperature;BME280_humidity;BME280_pressure;Samples;Min_cycle;Max_cycle;Signal;HPM_P1;HPM_P2
2021/08/20 00:01:38;;;;;;;31.48;22.48;;;;;;;13.70;100.00;101448.28;2617325;31;20043;-68
2021/08/20 00:04:07;;;;;;;31.30;23.35;;;;;;;13.63;100.00;101443.44;2616772;36;20531;-68
2021/08/20 00:06:38;;;;;;;36.33;23.83;;;;;;;13.60;100.00;101437.47;2617223;36;20039;-68
2021/08/20 00:09:06;;;;;;;33.63;22.83;;;;;;;13.59;100.00;101438.44;2618089;31;20035;-68
2021/08/20 00:11:34;;;;;;;35.75;24.02;;;;;;;13.57;100.00;101441.28;2617064;36;20037;-69
2021/08/20 00:14:03;;;;;;;31.00;23.95;;;;;;;13.48;100.00;101443.00;2617429;36;20066;-67
2021/08/20 00:16:31;;;;;;;34.97;24.25;;;;;;;13.47;100.00;101441.31;2617462;36;20081;-69
2021/08/20 00:18:59;;;;;;;37.88;24.13;;;;;;;13.43;100.00;101441.72;2616999;36;20544;-67
2021/08/20 00:21:27;;;;;;;34.15;24.23;;;;;;;13.37;100.00;101435.03;2616850;36;20150;-68
2021/08/20 00:23:58;;;;;;;32.92;23.63;;;;;;;13.30;100.00;101433.84;2616855;36;20042;-69
2021/08/20 00:26:26;;;;;;;34.95;23.58;;;;;;;13.26;100.00;101435.94;2616161;36;20576;-68
2021/08/20 00:28:54;;;;;;;36.13;24.85;;;;;;;13.22;100.00;101431.84;2616405;31;20595;-68
2021/08/20 00:31:23;;;;;;;40.33;25.08;;;;;;;13.22;100.00;101434.56;2616322;36;20689;-69
2021/08/20 00:33:51;;;;;;;39.35;23.42;;;;;;;13.20;100.00;101435.69;2616733;36;20023;-68
2021/08/20 00:36:20;;;;;;;35.92;23.92;;;;;;;13.21;100.00;101446.34;2617745;31;20516;-68
2021/08/20 00:38:48;;;;;;;30.88;23.42;;;;;;;13.17;100.00;101444.06;2616540;36;20129;-68
2021/08/20 00:41:19;;;;;;;33.28;24.00;;;;;;;13.12;100.00;101441.78;2616760;36;20026;-69
2021/08/20 00:43:49;;;;;;;35.53;23.92;;;;;;;13.04;100.00;101436.19;2616882;36;20081;-69
2021/08/20 00:46:17;;;;;;;32.40;23.23;;;;;;;13.04;100.00;101439.75;2617026;36;20125;-69
2021/08/20 00:48:45;;;;;;;32.42;23.67;;;;;;;12.95;100.00;101436.03;2615642;36;20026;-68
2021/08/20 00:51:18;;;;;;;30.13;23.25;;;;;;;12.94;100.00;101438.88;2617089;36;20046;-68
2021/08/20 00:53:47;;;;;;;31.40;23.05;;;;;;;12.97;100.00;101433.22;2616446;36;20490;-68
2021/08/20 00:56:19;;;;;;;;;;;;;;;12.95;100.00;101427.91;2616255;36;20133;-69
2021/08/20 00:58:49;;;;;;;37.45;24.10;;;;;;;12.90;100.00;101432.06;2616676;36;20022;-68
2021/08/20 01:01:17;;;;;;;32.17;23.42;;;;;;;12.87;100.00;101438.56;2616333;36;20166;-68
2021/08/20 01:03:46;;;;;;;30.63;23.52;;;;;;;12.82;100.00;101430.00;2616418;36;20154;-67
2021/08/20 01:06:14;;;;;;;38.57;25.13;;;;;;;12.81;100.00;101431.03;2616575;36;20026;-68
2021/08/20 01:08:42;;;;;;;36.03;25.67;;;;;;;12.78;100.00;101434.00;2617645;31;20543;-68
2021/08/20 01:11:13;;;;;;;38.13;26.17;;;;;;;12.74;100.00;101433.41;2616125;36;20035;-68
2021/08/20 01:13:44;;;;;;;37.47;25.17;;;;;;;12.72;100.00;101429.13;2616559;36;20073;-68
2021/08/20 01:16:13;;;;;;;43.15;27.40;;;;;;;12.72;100.00;101421.00;2617132;31;20029;-68
2021/08/20 01:18:44;;;;;;;39.65;25.67;;;;;;;12.70;100.00;101425.72;2617065;36;20133;-68
2021/08/20 01:21:15;;;;;;;38.38;26.08;;;;;;;12.65;100.00;101431.53;2616180;36;20034;-68
2021/08/20 01:23:46;;;;;;;41.88;25.95;;;;;;;12.60;100.00;101421.13;2617059;36;20044;-70
2021/08/20 01:26:17;;;;;;;36.20;25.33;;;;;;;12.61;100.00;101421.97;2616473;36;20109;-70
2021/08/20 01:28:46;;;;;;;44.00;28.48;;;;;;;12.62;100.00;101424.53;2617270;36;20065;-68
2021/08/20 01:31:18;;;;;;;39.63;26.08;;;;;;;12.68;100.00;101425.84;2614055;47;20587;-67
2021/08/20 01:33:47;;;;;;;37.63;25.13;;;;;;;12.68;100.00;101416.91;2617044;31;20484;-68
2021/08/20 01:36:16;;;;;;;39.17;26.35;;;;;;;12.59;100.00;101419.41;2616328;36;20027;-69
2021/08/20 01:38:49;;;;;;;36.92;24.90;;;;;;;12.56;100.00;101416.16;2616800;36;20030;-67
2021/08/20 01:41:21;;;;;;;41.67;27.15;;;;;;;12.59;100.00;101422.13;2616857;36;20027;-67
2021/08/20 01:43:49;;;;;;;37.92;26.55;;;;;;;12.55;100.00;101417.97;2616897;36;20074;-68
2021/08/20 01:46:18;;;;;;;37.78;25.98;;;;;;;12.57;100.00;101426.81;2616682;36;20162;-68
2021/08/20 01:48:48;;;;;;;42.00;24.92;;;;;;;12.54;100.00;101416.25;2616644;36;20029;-68
2021/08/20 01:51:16;;;;;;;;;;;;;;;12.61;100.00;101411.19;2616388;36;20041;-68
2021/08/20 01:53:46;;;;;;;39.60;26.02;;;;;;;12.53;100.00;101411.88;2616467;36;20061;-68
2021/08/20 01:56:15;;;;;;;40.63;25.85;;;;;;;12.54;100.00;101413.56;2616160;36;20166;-69
2021/08/20 01:58:48;;;;;;;38.70;26.05;;;;;;;12.55;100.00;101409.03;2615569;36;20035;-68
2021/08/20 02:01:16;;;;;;;35.67;24.48;;;;;;;12.57;100.00;101413.31;2615696;36;20118;-68
2021/08/20 02:03:44;;;;;;;36.90;24.77;;;;;;;12.58;100.00;101409.59;2616273;36;20038;-68
2021/08/20 02:06:13;;;;;;;47.10;28.40;;;;;;;12.56;100.00;101408.03;2615833;36;20042;-68
2021/08/20 02:08:41;;;;;;;38.90;26.23;;;;;;;12.60;100.00;101415.72;2616104;31;20224;-67
2021/08/20 02:11:10;;;;;;;41.75;29.00;;;;;;;12.69;100.00;101407.78;2615788;36;20084;-67
2021/08/20 02:13:38;;;;;;;43.60;27.93;;;;;;;12.70;100.00;101418.44;2615141;36;20129;-68
2021/08/20 02:16:09;;;;;;;49.40;28.73;;;;;;;12.77;100.00;101411.50;2616196;36;20110;-68
2021/08/20 02:18:38;;;;;;;50.92;29.75;;;;;;;12.79;100.00;101411.38;2616281;31;20023;-68
2021/08/20 02:21:06;;;;;;;48.43;29.00;;;;;;;12.86;100.00;101415.25;2615907;36;20070;-68
2021/08/20 02:23:37;;;;;;;47.63;30.63;;;;;;;12.83;100.00;101412.81;2615886;36;20066;-70
2021/08/20 02:26:05;;;;;;;42.47;27.90;;;;;;;12.79;100.00;101404.16;2616999;36;20035;-68
2021/08/20 02:28:33;;;;;;;45.08;27.02;;;;;;;12.80;100.00;101405.84;2617364;36;20038;-68
2021/08/20 02:31:01;;;;;;;50.63;29.90;;;;;;;12.86;100.00;101409.84;2617148;36;20611;-67
2021/08/20 02:33:33;;;;;;;52.80;31.60;;;;;;;12.90;100.00;101411.28;2616983;36;20567;-71
2021/08/20 02:36:02;;;;;;;46.90;30.40;;;;;;;12.98;100.00;101413.28;2617557;36;20081;-69
2021/08/20 02:38:30;;;;;;;53.78;32.60;;;;;;;13.01;100.00;101412.16;2616802;36;20169;-67
2021/08/20 02:40:59;;;;;;;54.10;30.15;;;;;;;13.07;100.00;101411.59;2616538;36;20067;-67
2021/08/20 02:43:27;;;;;;;52.63;31.80;;;;;;;13.10;100.00;101422.13;2617282;36;20067;-68
2021/08/20 02:45:56;;;;;;;56.33;31.55;;;;;;;13.05;100.00;101413.59;2616613;36;20615;-67
2021/08/20 02:48:24;;;;;;;51.65;31.48;;;;;;;13.00;100.00;101418.56;2617263;31;20090;-69
2021/08/20 02:50:55;;;;;;;61.58;34.65;;;;;;;13.04;100.00;101412.72;2617012;36;20118;-68
2021/08/20 02:53:24;;;;;;;54.70;32.35;;;;;;;13.03;100.00;101415.56;2616715;36;20077;-68
2021/08/20 02:55:52;;;;;;;51.90;31.58;;;;;;;12.97;100.00;101406.19;2617442;36;20061;-69
2021/08/20 02:58:20;;;;;;;57.85;31.63;;;;;;;13.02;100.00;101409.31;2616545;36;20039;-68
2021/08/20 03:00:49;;;;;;;58.35;32.83;;;;;;;13.06;100.00;101404.47;2616704;36;20077;-67
2021/08/20 03:03:17;;;;;;;54.47;31.97;;;;;;;13.18;100.00;101414.19;2616629;36;20041;-68
2021/08/20 03:05:45;;;;;;;53.75;32.90;;;;;;;13.17;100.00;101409.78;2617004;36;20042;-68
2021/08/20 03:08:16;;;;;;;63.38;35.70;;;;;;;13.18;100.00;101408.78;2616576;36;20039;-70
2021/08/20 03:10:44;;;;;;;63.20;35.17;;;;;;;13.21;100.00;101404.97;2617041;36;20587;-71
2021/08/20 03:13:13;;;;;;;59.85;34.03;;;;;;;13.21;100.00;101399.56;2617147;36;20092;-71
2021/08/20 03:15:41;;;;;;;63.22;36.33;;;;;;;13.25;100.00;101404.53;2616766;36;20034;-70
2021/08/20 03:18:09;;;;;;;58.28;33.53;;;;;;;13.29;100.00;101400.56;2617093;36;20603;-74
2021/08/20 03:20:38;;;;;;;67.72;36.08;;;;;;;13.26;100.00;101398.09;2616739;36;20043;-72
2021/08/20 03:23:06;;;;;;;70.50;35.90;;;;;;;13.27;100.00;101405.22;2616763;36;20070;-72
2021/08/20 03:25:37;;;;;;;71.80;36.63;;;;;;;13.30;100.00;101404.09;2617042;36;20575;-71
2021/08/20 03:28:07;;;;;;;62.47;34.30;;;;;;;13.35;100.00;101403.72;2616917;31;20043;-72
2021/08/20 03:30:36;;;;;;;67.82;36.28;;;;;;;13.35;100.00;101404.56;2617746;36;20034;-76
2021/08/20 03:33:05;;;;;;;65.93;35.75;;;;;;;13.34;100.00;101402.88;2616652;36;20129;-73
2021/08/20 03:35:33;;;;;;;64.78;35.40;;;;;;;13.35;100.00;101403.72;2616206;36;20139;-71
2021/08/20 03:38:02;;;;;;;66.65;35.95;;;;;;;13.32;100.00;101400.28;2616550;31;20653;-71
2021/08/20 03:40:30;;;;;;;67.57;34.50;;;;;;;13.32;100.00;101404.81;2616473;36;20170;-73
2021/08/20 03:43:01;;;;;;;65.53;36.30;;;;;;;13.37;100.00;101401.72;2616980;36;20126;-69
2021/08/20 03:45:29;;;;;;;68.93;37.28;;;;;;;13.45;100.00;101400.00;2617594;31;20125;-70
2021/08/20 03:47:57;;;;;;;90.00;40.13;;;;;;;13.45;100.00;101410.81;2616967;36;20055;-70
2021/08/20 03:50:25;;;;;;;80.60;40.72;;;;;;;13.48;100.00;101417.81;2616550;36;20166;-70
2021/08/20 03:52:53;;;;;;;71.70;38.83;;;;;;;13.49;100.00;101416.81;2616478;36;20034;-70
2021/08/20 03:55:22;;;;;;;74.38;37.67;;;;;;;13.50;100.00;101407.72;2616598;36;20038;-69
2021/08/20 03:57:50;;;;;;;79.60;39.10;;;;;;;13.47;100.00;101402.56;2616383;36;20598;-69
2021/08/20 04:00:22;;;;;;;78.43;38.05;;;;;;;13.47;100.00;101410.69;2616780;31;20300;-69
2021/08/20 04:02:50;;;;;;;71.95;37.70;;;;;;;13.61;100.00;101417.53;2617215;36;20159;-71
2021/08/20 04:05:18;;;;;;;98.60;43.38;;;;;;;13.53;100.00;101414.69;2616176;36;20077;-72
2021/08/20 04:07:48;;;;;;;84.75;41.13;;;;;;;13.54;100.00;101411.81;2617091;31;20054;-73
2021/08/20 04:10:16;;;;;;;77.68;39.83;;;;;;;13.61;100.00;101425.66;2616935;31;20540;-72
2021/08/20 04:12:44;;;;;;;78.37;39.93;;;;;;;13.70;100.00;101418.53;2616505;36;20143;-72
2021/08/20 04:15:13;;;;;;;98.05;44.13;;;;;;;13.70;100.00;101415.81;2615993;36;20030;-72
2021/08/20 04:17:44;;;;;;;100.43;45.05;;;;;;;13.69;100.00;101422.22;2616777;36;20043;-71
2021/08/20 04:20:14;;;;;;;86.82;40.20;;;;;;;13.70;100.00;101421.25;2615674;36;20063;-71
2021/08/20 04:22:42;;;;;;;108.43;45.28;;;;;;;13.80;100.00;101431.03;2616780;31;20524;-72
2021/08/20 04:25:12;;;;;;;106.22;45.50;;;;;;;13.83;100.00;101421.81;2615789;36;20062;-72
2021/08/20 04:27:40;;;;;;;107.47;43.88;;;;;;;13.85;100.00;101419.78;2616962;36;20057;-72
2021/08/20 04:30:09;;;;;;;103.03;43.03;;;;;;;13.86;100.00;101418.81;2616953;36;20081;-74
2021/08/20 04:35:36;;;;;;;113.93;45.75;;;;;;;13.88;100.00;101415.94;2616724;36;20082;-72
2021/08/20 04:38:05;;;;;;;112.18;47.75;;;;;;;13.91;100.00;101412.94;2616059;36;20039;-70
2021/08/20 04:40:34;;;;;;;106.55;45.78;;;;;;;14.02;100.00;101424.47;2616462;36;20074;-70
2021/08/20 04:43:02;;;;;;;93.63;43.05;;;;;;;14.09;100.00;101437.41;2616760;31;20130;-71
2021/08/20 04:45:30;;;;;;;102.43;43.63;;;;;;;14.20;100.00;101437.25;2616843;36;20058;-71
2021/08/20 04:47:58;;;;;;;76.07;38.75;;;;;;;14.24;100.00;101438.69;2617691;31;20519;-71
2021/08/20 04:50:29;;;;;;;80.28;40.75;;;;;;;14.20;100.00;101442.69;2615856;36;20555;-71
2021/08/20 04:53:00;;;;;;;78.30;38.85;;;;;;;14.27;100.00;101449.22;2616399;31;20585;-71
2021/08/20 04:55:29;;;;;;;78.18;37.97;;;;;;;14.29;100.00;101452.63;2615886;36;20027;-71
2021/08/20 04:57:57;;;;;;;94.37;40.50;;;;;;;14.32;100.00;101454.19;2616551;36;20578;-71
2021/08/20 05:00:25;;;;;;;89.65;40.75;;;;;;;14.20;100.00;101451.66;2616719;36;22084;-71
2021/08/20 05:02:54;;;;;;;76.65;38.00;;;;;;;14.22;100.00;101451.50;2615009;31;20563;-71
2021/08/20 05:05:22;;;;;;;89.57;41.70;;;;;;;14.27;100.00;101459.22;2616225;36;20618;-70
2021/08/20 05:07:50;;;;;;;89.32;43.10;;;;;;;14.22;100.00;101451.50;2616435;36;20856;-71
2021/08/20 05:10:21;;;;;;;81.03;40.42;;;;;;;14.28;100.00;101455.47;2615988;36;20161;-71
2021/08/20 05:12:50;;;;;;;83.13;39.75;;;;;;;14.22;100.00;101456.91;2616331;36;20093;-70
2021/08/20 05:15:18;;;;;;;111.90;45.33;;;;;;;14.22;100.00;101456.91;2615895;36;20022;-71
2021/08/20 05:17:46;;;;;;;84.90;39.60;;;;;;;14.35;100.00;101462.91;2616259;36;20450;-70
2021/08/20 05:20:15;;;;;;;90.50;39.40;;;;;;;14.41;100.00;101460.59;2616498;36;20532;-71
2021/08/20 05:22:47;;;;;;;85.53;38.85;;;;;;;14.33;100.00;101470.28;2616487;36;20541;-70
2021/08/20 05:25:16;;;;;;;88.72;41.25;;;;;;;14.39;100.00;101468.03;2617922;31;20530;-70
2021/08/20 05:27:47;;;;;;;96.90;43.10;;;;;;;14.37;100.00;101466.31;2615985;36;20933;-70
2021/08/20 05:30:16;;;;;;;87.15;41.10;;;;;;;14.36;100.00;101463.75;2615741;36;20069;-71
2021/08/20 05:32:45;;;;;;;89.13;41.35;;;;;;;14.49;100.00;101469.69;2616254;36;20066;-72
2021/08/20 05:35:15;;;;;;;105.50;45.13;;;;;;;14.44;100.00;101466.59;2616659;36;20650;-72
2021/08/20 05:37:43;;;;;;;102.85;45.05;;;;;;;14.51;100.00;101464.97;2615929;31;20045;-71
2021/08/20 05:40:13;;;;;;;110.53;45.63;;;;;;;14.65;100.00;101469.09;2614992;36;20057;-70
2021/08/20 05:42:42;;;;;;;101.07;43.08;;;;;;;14.82;100.00;101466.63;2616341;36;20081;-70
2021/08/20 05:45:14;;;;;;;103.25;44.72;;;;;;;14.68;100.00;101474.22;2615562;36;20082;-73
2021/08/20 05:47:42;;;;;;;93.10;42.90;;;;;;;14.85;100.00;101474.44;2616244;36;20088;-71
2021/08/20 05:50:11;;;;;;;104.57;43.70;;;;;;;14.88;100.00;101468.72;2615879;36;20101;-73
2021/08/20 05:52:40;;;;;;;103.78;44.58;;;;;;;14.77;100.00;101468.94;2616447;36;20410;-71
2021/08/20 05:55:10;;;;;;;104.30;44.63;;;;;;;14.70;100.00;101476.78;2616182;36;20027;-72
2021/08/20 05:57:39;;;;;;;93.47;41.72;;;;;;;14.77;100.00;101472.50;2616158;36;20035;-70
2021/08/20 06:00:10;;;;;;;100.40;43.03;;;;;;;14.82;100.00;101478.31;2616869;31;20038;-72
2021/08/20 06:02:44;;;;;;;95.53;41.85;;;;;;;14.83;100.00;101481.88;2617675;36;20088;-71
2021/08/20 06:05:12;;;;;;;91.78;40.97;;;;;;;14.90;100.00;101480.28;2616723;36;20049;-71
2021/08/20 06:07:41;;;;;;;97.90;41.85;;;;;;;14.91;100.00;101479.25;2617026;36;20072;-70
2021/08/20 06:10:11;;;;;;;101.63;41.72;;;;;;;14.84;100.00;101486.28;2616884;36;20110;-70
2021/08/20 06:12:39;;;;;;;93.30;42.08;;;;;;;15.00;100.00;101491.06;2617051;36;20563;-70
2021/08/20 06:15:08;;;;;;;101.22;42.70;;;;;;;15.04;100.00;101498.75;2617164;36;20057;-70
2021/08/20 06:17:37;;;;;;;98.15;42.58;;;;;;;15.01;100.00;101496.34;2617040;36;20030;-72
2021/08/20 06:20:09;;;;;;;105.67;42.40;;;;;;;15.12;100.00;101497.16;2616989;36;20046;-70
2021/08/20 06:22:37;;;;;;;105.32;44.20;;;;;;;15.10;100.00;101499.16;2617843;31;20149;-70
2021/08/20 06:25:06;;;;;;;105.50;43.20;;;;;;;15.12;100.00;101497.16;2616775;36;20547;-69
2021/08/20 06:27:34;;;;;;;103.18;42.50;;;;;;;15.27;100.00;101500.19;2617410;36;20038;-72
2021/08/20 06:30:02;;;;;;;107.05;42.53;;;;;;;15.40;100.00;101496.16;2617294;36;20073;-72
2021/08/20 06:32:30;;;;;;;102.50;44.55;;;;;;;15.45;100.00;101492.13;2616953;36;20108;-69
2021/08/20 06:34:58;;;;;;;118.55;43.88;;;;;;;15.51;100.00;101492.34;2618683;31;20452;-69
2021/08/20 06:37:29;;;;;;;97.32;42.80;;;;;;;15.62;100.00;101488.59;2617235;36;20110;-70
2021/08/20 06:39:57;;;;;;;114.03;43.17;;;;;;;15.72;100.00;101488.50;2618045;31;20073;-70
2021/08/20 06:42:26;;;;;;;95.93;42.45;;;;;;;15.70;100.00;101493.22;2617304;36;20141;-71
2021/08/20 06:44:54;;;;;;;97.47;42.75;;;;;;;15.81;100.00;101494.88;2617113;36;20030;-69
2021/08/20 06:47:22;;;;;;;99.20;42.92;;;;;;;15.87;100.00;101496.97;2616107;36;20130;-68
2021/08/20 06:49:51;;;;;;;91.60;41.72;;;;;;;15.91;100.00;101498.38;2616800;36;20046;-70
2021/08/20 06:52:19;;;;;;;95.63;40.38;;;;;;;15.96;100.00;101493.34;2616512;36;20038;-70
2021/08/20 06:54:50;;;;;;;85.70;39.72;;;;;;;16.01;100.00;101499.16;2617316;36;20068;-69
2021/08/20 06:57:18;;;;;;;91.95;41.55;;;;;;;16.01;100.00;101499.16;2617056;31;20030;-71
2021/08/20 06:59:46;;;;;;;91.28;40.20;;;;;;;16.05;100.00;101488.84;2616656;36;20054;-70
2021/08/20 07:02:15;;;;;;;86.95;39.92;;;;;;;16.15;100.00;101500.47;2616513;36;20138;-70
2021/08/20 07:04:43;;;;;;;87.50;39.15;;;;;;;16.22;100.00;101495.25;2616854;36;20530;-72
2021/08/20 07:07:11;;;;;;;87.47;39.07;;;;;;;16.25;100.00;101495.81;2616998;36;20022;-70
2021/08/20 07:09:39;;;;;;;79.75;37.90;;;;;;;16.16;100.00;101494.00;2615958;36;20030;-69
2021/08/20 07:12:11;;;;;;;93.35;37.72;;;;;;;16.09;100.00;101501.94;2616698;36;20034;-69
2021/08/20 07:14:39;;;;;;;84.72;37.00;;;;;;;16.10;100.00;101505.50;2617045;36;20054;-72
2021/08/20 07:17:07;;;;;;;89.15;40.03;;;;;;;16.26;100.00;101515.66;2617025;31;20426;-69
2021/08/20 07:19:35;;;;;;;68.35;34.85;;;;;;;16.37;100.00;101514.53;2617002;36;20077;-71
2021/08/20 07:22:03;;;;;;;82.72;37.67;;;;;;;16.20;100.00;101508.97;2616858;31;20030;-70
2021/08/20 07:24:32;;;;;;;75.13;37.20;;;;;;;16.24;100.00;101509.53;2616704;36;20081;-70
2021/08/20 07:27:00;;;;;;;83.05;37.22;;;;;;;16.44;100.00;101519.22;2616626;36;20035;-70
2021/08/20 07:29:30;;;;;;;79.28;35.95;;;;;;;16.52;100.00;101523.84;2616949;36;20114;-70
2021/08/20 07:31:59;;;;;;;74.30;35.40;;;;;;;16.63;100.00;101529.00;2616717;36;20076;-72
2021/08/20 07:34:27;;;;;;;77.35;38.05;;;;;;;16.68;100.00;101523.09;2617167;31;20039;-69
2021/08/20 07:36:55;;;;;;;70.57;36.03;;;;;;;16.89;100.00;101521.91;2616405;36;20088;-70
2021/08/20 07:39:26;;;;;;;66.63;34.87;;;;;;;16.93;100.00;101520.53;2616159;36;20170;-71
2021/08/20 07:41:54;;;;;;;74.55;36.03;;;;;;;16.99;100.00;101517.19;2618183;31;20471;-69
2021/08/20 07:44:22;;;;;;;67.20;33.97;;;;;;;16.91;100.00;101522.56;2616806;36;20031;-71
2021/08/20 07:46:53;;;;;;;64.93;34.47;;;;;;;16.92;100.00;101524.28;2616880;31;20042;-70
2021/08/20 07:49:21;;;;;;;72.22;34.90;;;;;;;17.07;100.00;101528.09;2615599;36;20133;-70
2021/08/20 07:51:50;;;;;;;63.72;34.72;;;;;;;17.10;100.00;101525.03;2616924;36;20580;-71
2021/08/20 07:54:18;;;;;;;63.40;34.35;;;;;;;17.32;100.00;101525.47;2616172;36;20058;-71
2021/08/20 07:56:46;;;;;;;67.15;33.63;;;;;;;17.22;100.00;101530.22;2616838;31;20546;-69
2021/08/20 07:59:14;;;;;;;66.43;34.47;;;;;;;17.42;100.00;101523.47;2616187;36;20077;-69
2021/08/20 08:01:43;;;;;;;65.55;33.00;;;;;;;17.54;100.00;101525.91;2616951;36;20045;-70
2021/08/20 08:04:13;;;;;;;60.50;31.07;;;;;;;17.57;100.00;101534.59;2615909;31;20126;-71
2021/08/20 08:06:42;;;;;;;58.60;30.70;;;;;;;17.61;100.00;101530.50;2616451;36;20177;-70
2021/08/20 08:09:10;;;;;;;59.73;32.43;;;;;;;18.21;100.00;101537.63;2616672;36;20027;-70
2021/08/20 08:11:38;;;;;;;48.17;30.17;;;;;;;18.62;100.00;101527.69;2617447;36;20030;-69
2021/08/20 08:14:07;;;;;;;48.07;28.07;;;;;;;18.24;100.00;101524.66;2616728;36;20030;-69
2021/08/20 08:16:36;;;;;;;46.35;27.83;;;;;;;18.07;100.00;101526.53;2616872;36;20062;-71
2021/08/20 08:19:06;;;;;;;47.17;27.08;;;;;;;18.20;100.00;101525.00;2615315;36;20746;-69
2021/08/20 08:21:37;;;;;;;39.85;26.27;;;;;;;18.78;100.00;101522.19;2616990;36;20552;-69
2021/08/20 08:24:06;;;;;;;50.33;29.00;;;;;;;18.64;100.00;101522.91;2616265;31;20030;-68
2021/08/20 08:26:34;;;;;;;;;;;;;;;18.86;100.00;101530.41;2617287;36;20397;-70
2021/08/20 08:29:02;;;;;;;36.85;24.73;;;;;;;18.60;100.00;101514.25;2616000;36;19978;-69
2021/08/20 08:31:30;;;;;;;37.37;24.53;;;;;;;18.63;100.00;101515.78;2616943;36;20129;-69
2021/08/20 08:33:58;;;;;;;38.63;25.57;;;;;;;18.82;100.00;101523.56;2616627;36;20158;-68
2021/08/20 08:36:27;;;;;;;34.67;24.48;;;;;;;18.90;100.00;101517.25;2616369;36;20118;-68
2021/08/20 08:38:57;;;;;;;35.63;23.43;;;;;;;18.77;100.00;101519.66;2616307;36;20141;-70
2021/08/20 08:41:26;;;;;;;35.60;22.70;;;;;;;18.72;100.00;101517.44;2616803;31;20499;-70
2021/08/20 08:43:54;;;;;;;40.60;24.63;;;;;;;18.91;100.00;101522.53;2617611;31;20632;-69
2021/08/20 08:46:26;;;;;;;32.13;22.27;;;;;;;19.57;100.00;101533.19;2616701;36;20296;-70
2021/08/20 08:48:54;;;;;;;29.30;21.75;;;;;;;19.84;100.00;101533.72;2617094;31;20133;-71
2021/08/20 08:51:23;;;;;;;27.17;19.88;;;;;;;19.39;100.00;101522.53;2616520;36;20517;-67
2021/08/20 08:53:51;;;;;;;26.92;19.02;;;;;;;19.81;100.00;101520.44;2616466;36;20027;-68
2021/08/20 08:56:23;;;;;;;24.33;17.65;;;;;;;19.55;100.00;101518.88;2616755;31;20618;-67
2021/08/20 08:58:52;;;;;;;26.33;18.63;;;;;;;19.43;100.00;101525.75;2615855;31;20038;-68
2021/08/20 09:01:31;;;;;;;27.17;19.92;;;;;;;19.78;100.00;101518.06;2617214;36;20027;-69
2021/08/20 09:04:10;;;;;;;27.77;17.95;;;;;;;20.18;100.00;101512.50;2616024;36;20077;-68
2021/08/20 09:06:40;;;;;;;22.85;17.60;;;;;;;19.87;100.00;101511.50;2616697;36;20022;-68
2021/08/20 09:09:09;;;;;;;25.02;18.83;;;;;;;19.80;100.00;101518.72;2616598;36;20038;-68
2021/08/20 09:11:40;;;;;;;;;;;;;;;20.02;100.00;101538.06;2616283;36;20035;-68
2021/08/20 09:14:10;;;;;;;22.30;16.98;;;;;;;19.06;100.00;101519.09;2616134;36;20085;-67
2021/08/20 09:16:40;;;;;;;24.40;17.80;;;;;;;18.98;100.00;101533.63;2616795;31;20569;-68
2021/08/20 09:19:15;;;;;;;22.98;17.20;;;;;;;19.12;100.00;101517.53;2615723;36;20129;-68
2021/08/20 09:21:44;;;;;;;23.15;18.35;;;;;;;19.64;100.00;101522.41;2616041;36;20089;-68
2021/08/20 09:24:27;;;;;;;;;;;;;;;20.36;100.00;101521.22;2616346;36;20030;-68
2021/08/20 09:27:21;;;;;;;22.85;18.15;;;;;;;20.61;100.00;101513.63;2616572;36;20029;-68
2021/08/20 09:29:57;;;;;;;19.92;16.90;;;;;;;20.74;100.00;101509.41;2616897;31;20042;-69
2021/08/20 09:32:26;;;;;;;19.65;17.42;;;;;;;20.41;100.00;101512.47;2616769;36;20574;-69
2021/08/20 09:34:57;;;;;;;;;;;;;;;20.45;100.00;101519.22;2617619;31;20542;-68
2021/08/20 09:37:26;;;;;;;19.73;16.85;;;;;;;20.28;100.00;101513.09;2617099;36;20354;-68
2021/08/20 09:39:58;;;;;;;;;;;;;;;20.62;100.00;101526.25;2617936;31;20515;-69
2021/08/20 09:42:29;;;;;;;19.92;16.58;;;;;;;20.94;100.00;101529.72;2615954;36;19942;-69
2021/08/20 09:45:13;;;;;;;21.17;16.40;;;;;;;21.04;100.00;101523.97;2615784;36;20035;-68
2021/08/20 09:47:46;;;;;;;17.73;15.65;;;;;;;21.23;100.00;101530.75;2616186;36;20030;-69
2021/08/20 09:50:15;;;;;;;15.55;13.95;;;;;;;20.83;100.00;101527.44;2616831;36;20073;-69
2021/08/20 09:52:44;;;;;;;18.40;14.73;;;;;;;21.18;100.00;101524.97;2616588;36;20122;-70
2021/08/20 09:55:13;;;;;;;16.02;13.18;;;;;;;21.09;100.00;101523.41;2617270;36;20458;-68
2021/08/20 09:57:44;;;;;;;17.25;14.63;;;;;;;21.26;100.00;101526.75;2615254;36;20062;-69
2021/08/20 10:00:13;;;;;;;15.85;12.27;;;;;;;21.70;100.00;101523.97;2613681;31;20547;-68
2021/08/20 10:02:42;;;;;;;;;;;;;;;21.57;100.00;101523.81;2614158;36;20030;-70
2021/08/20 10:05:12;;;;;;;16.38;13.00;;;;;;;21.25;100.00;101525.91;2615629;36;19946;-69
2021/08/20 10:07:41;;;;;;;15.43;13.75;;;;;;;21.01;100.00;101524.34;2611247;36;20137;-68
2021/08/20 10:10:12;;;;;;;13.98;12.38;;;;;;;21.66;100.00;101530.03;2614109;36;20041;-70
2021/08/20 10:12:45;;;;;;;15.73;13.20;;;;;;;21.31;100.00;101529.78;2614704;36;20141;-71
2021/08/20 10:15:14;;;;;;;14.85;13.35;;;;;;;21.08;100.00;101529.91;2615431;36;20161;-70
2021/08/20 10:17:43;;;;;;;13.13;11.38;;;;;;;21.28;100.00;101530.19;2616318;36;20492;-70
2021/08/20 10:20:12;;;;;;;14.25;12.35;;;;;;;21.29;100.00;101532.72;2614409;31;20030;-71
2021/08/20 10:22:40;;;;;;;14.00;12.15;;;;;;;21.51;100.00;101532.81;2616803;31;20502;-68
2021/08/20 10:25:10;;;;;;;;;;;;;;;21.34;100.00;101530.25;2609834;36;20076;-69
2021/08/20 10:27:39;;;;;;;14.48;11.70;;;;;;;21.24;100.00;101537.91;2614447;36;19943;-72
2021/08/20 10:32:39;;;;;;;14.13;10.30;;;;;;;21.33;100.00;101525.81;2612692;36;20037;-71
2021/08/20 10:35:14;;;;;;;15.95;11.57;;;;;;;21.51;100.00;101539.13;2615032;39;20515;-70
2021/08/20 10:37:43;;;;;;;14.80;10.95;;;;;;;21.44;100.00;101543.66;2610525;36;20031;-69
2021/08/20 10:40:25;;;;;;;12.88;10.80;;;;;;;21.03;100.00;101541.41;2609059;36;20126;-70
2021/08/20 10:42:53;;;;;;;15.15;10.45;;;;;;;21.47;100.00;101545.16;2616192;36;20022;-71
2021/08/20 10:45:21;;;;;;;12.40;10.98;;;;;;;20.91;100.00;101541.03;2612589;36;20110;-72
2021/08/20 10:48:18;;;;;;;12.88;10.52;;;;;;;20.90;100.00;101547.53;2616976;36;20056;-70
2021/08/20 10:50:46;;;;;;;13.77;10.88;;;;;;;20.90;100.00;101539.31;2616510;36;20034;-71
2021/08/20 10:53:49;;;;;;;12.82;10.63;;;;;;;20.74;100.00;101542.25;2616674;36;20117;-70
2021/08/20 10:56:32;;;;;;;12.68;10.98;;;;;;;20.92;100.00;101542.75;2614355;36;20153;-71
2021/08/20 10:59:01;;;;;;;12.93;10.20;;;;;;;20.91;100.00;101541.03;2616611;36;20055;-69
2021/08/20 11:01:29;;;;;;;11.38;8.60;;;;;;;21.14;100.00;101540.94;2615811;36;20114;-70
2021/08/20 11:04:00;;;;;;;15.88;8.98;;;;;;;21.14;100.00;101551.03;2616707;36;20047;-69
2021/08/20 11:06:55;;;;;;;11.98;9.30;;;;;;;20.80;100.00;101539.63;2616647;36;20624;-70
2021/08/20 11:09:35;;;;;;;12.85;8.80;;;;;;;20.89;100.00;101556.81;2617081;31;20537;-69
2021/08/20 11:12:03;;;;;;;14.40;10.60;;;;;;;20.59;100.00;101551.25;2616311;36;20033;-69
2021/08/20 11:14:37;;;;;;;12.27;10.45;;;;;;;20.54;100.00;101556.44;2615935;36;20547;-71
2021/08/20 11:17:07;;;;;;;14.68;10.93;;;;;;;20.85;100.00;101557.34;2616595;36;20034;-72
2021/08/20 11:19:59;;;;;;;11.73;9.40;;;;;;;20.78;100.00;101557.25;2616790;36;20031;-69
2021/08/20 11:22:32;;;;;;;14.38;10.82;;;;;;;20.63;100.00;101566.25;2615068;36;20029;-67